createdAt,value
2019-03-22T00:01:38.326Z,9.73
2019-03-22T00:04:06.373Z,9.00
2019-03-22T00:06:34.457Z,9.27
2019-03-22T00:09:02.482Z,9.48
2019-03-22T00:11:31.425Z,9.30
2019-03-22T00:13:59.601Z,8.85
2019-03-22T00:16:27.646Z,9.38
2019-03-22T00:18:55.697Z,9.15
2019-03-22T00:21:23.738Z,9.23
2019-03-22T00:23:52.555Z,9.48
2019-03-22T00:26:20.602Z,9.32
2019-03-22T00:28:48.707Z,9.13
2019-03-22T00:31:16.756Z,8.85
2019-03-22T00:33:45.655Z,9.00
2019-03-22T00:36:13.695Z,9.15
2019-03-22T00:38:41.806Z,8.80
2019-03-22T00:41:10.583Z,8.43
2019-03-22T00:43:38.675Z,8.52
2019-03-22T00:46:06.698Z,8.35
2019-03-22T00:48:35.739Z,8.27
2019-03-22T00:51:03.751Z,8.50
2019-03-22T00:53:31.790Z,8.13
2019-03-22T00:55:59.823Z,8.68
2019-03-22T00:58:27.866Z,8.32
2019-03-22T01:00:55.907Z,8.20
2019-03-22T01:03:23.960Z,8.83
2019-03-22T01:05:51.986Z,8.90
2019-03-22T01:08:20.839Z,8.57
2019-03-22T01:10:48.875Z,8.02
2019-03-22T01:13:17.696Z,8.63
2019-03-22T01:15:45.730Z,8.10
2019-03-22T01:18:13.821Z,8.02
2019-03-22T01:20:41.854Z,8.15
2019-03-22T01:23:10.681Z,8.77
2019-03-22T01:25:38.856Z,8.70
2019-03-22T01:28:06.905Z,8.45
2019-03-22T01:30:34.938Z,8.05
2019-03-22T01:33:03.002Z,8.63
2019-03-22T01:35:31.130Z,8.32
2019-03-22T01:37:59.961Z,8.80
2019-03-22T01:40:27.996Z,9.15
2019-03-22T01:42:56.039Z,8.57
2019-03-22T01:45:24.838Z,9.05
2019-03-22T01:47:52.910Z,8.73
2019-03-22T01:50:20.952Z,9.10
2019-03-22T01:52:48.999Z,9.30
2019-03-22T01:55:17.339Z,9.00
2019-03-22T01:57:52.988Z,8.85
2019-03-22T02:00:13.451Z,9.18
2019-03-22T02:02:42.302Z,9.48
2019-03-22T02:05:10.494Z,8.82
2019-03-22T02:07:38.562Z,8.85
2019-03-22T02:10:07.484Z,9.15
2019-03-22T02:12:36.494Z,8.07
2019-03-22T02:15:05.697Z,8.27
2019-03-22T02:17:33.738Z,8.63
2019-03-22T02:20:02.530Z,8.65
2019-03-22T02:22:30.575Z,8.30
2019-03-22T02:24:58.623Z,8.95
2019-03-22T02:27:26.698Z,8.45
2019-03-22T02:29:54.690Z,8.73
2019-03-22T02:32:22.795Z,8.88
2019-03-22T02:34:50.835Z,9.40
2019-03-22T02:37:18.876Z,8.80
2019-03-22T02:39:47.062Z,8.93
2019-03-22T02:42:15.009Z,8.90
2019-03-22T02:44:43.759Z,8.87
2019-03-22T02:47:12.729Z,8.38
2019-03-22T02:49:41.529Z,8.88
2019-03-22T02:52:10.370Z,8.63
2019-03-22T02:54:38.456Z,8.80
2019-03-22T02:57:06.480Z,8.50
2019-03-22T02:59:34.562Z,9.02
2019-03-22T03:02:02.624Z,8.98
2019-03-22T03:04:31.441Z,8.88
2019-03-22T03:06:59.476Z,8.52
2019-03-22T03:09:27.518Z,9.00
2019-03-22T03:11:56.367Z,9.02
2019-03-22T03:14:24.510Z,9.15
2019-03-22T03:16:52.571Z,9.20
2019-03-22T03:19:20.654Z,8.98
2019-03-22T03:21:48.758Z,8.57
2019-03-22T03:24:16.891Z,9.07
2019-03-22T03:26:44.971Z,8.98
2019-03-22T03:29:13.016Z,8.63
2019-03-22T03:31:41.816Z,8.82
2019-03-22T03:34:09.976Z,8.55
2019-03-22T03:36:38.674Z,8.75
2019-03-22T03:39:06.767Z,8.82
2019-03-22T03:41:34.833Z,8.65
2019-03-22T03:44:03.617Z,8.53
2019-03-22T03:46:31.657Z,9.00
2019-03-22T03:49:00.487Z,8.75
2019-03-22T03:51:28.532Z,8.60
2019-03-22T03:53:56.606Z,8.40
2019-03-22T03:56:26.447Z,8.70
2019-03-22T03:58:54.592Z,8.70
2019-03-22T04:01:22.721Z,8.80
2019-03-22T04:03:50.878Z,8.55
2019-03-22T04:06:18.903Z,9.18
2019-03-22T04:08:46.965Z,8.73
2019-03-22T04:11:15.806Z,8.45
2019-03-22T04:13:43.844Z,8.68
2019-03-22T04:16:11.874Z,8.70
2019-03-22T04:18:40.036Z,8.30
2019-03-22T04:21:08.102Z,8.38
2019-03-22T04:23:36.230Z,8.70
2019-03-22T04:26:04.307Z,9.93
2019-03-22T04:28:32.425Z,9.55
2019-03-22T04:31:00.429Z,11.27
2019-03-22T04:33:29.235Z,12.85
2019-03-22T04:35:57.276Z,12.80
2019-03-22T04:38:26.192Z,12.85
2019-03-22T04:40:54.239Z,13.77
2019-03-22T04:43:23.089Z,13.18
2019-03-22T04:45:51.139Z,13.00
2019-03-22T04:48:22.101Z,11.70
2019-03-22T04:50:50.146Z,11.53
2019-03-22T04:53:18.208Z,10.07
2019-03-22T04:55:46.309Z,9.82
2019-03-22T04:58:14.435Z,9.73
2019-03-22T05:00:43.229Z,9.38
2019-03-22T05:03:11.250Z,9.10
2019-03-22T05:05:39.333Z,9.20
2019-03-22T05:08:07.449Z,8.90
2019-03-22T05:10:35.490Z,8.90
2019-03-22T05:13:03.600Z,8.95
2019-03-22T05:15:31.624Z,9.30
2019-03-22T05:17:59.718Z,9.27
2019-03-22T05:20:28.558Z,10.00
2019-03-22T05:22:56.690Z,9.98
2019-03-22T05:25:24.726Z,9.05
2019-03-22T05:27:52.839Z,8.98
2019-03-22T05:33:22.571Z,9.33
2019-03-22T05:35:50.621Z,9.40
2019-03-22T05:38:19.426Z,9.18
2019-03-22T05:40:47.506Z,9.73
2019-03-22T05:43:15.539Z,9.75
2019-03-22T05:45:44.494Z,10.13
2019-03-22T05:48:12.630Z,10.10
2019-03-22T05:50:41.447Z,9.83
2019-03-22T05:53:09.502Z,9.85
2019-03-22T05:55:37.651Z,9.73
2019-03-22T05:58:05.722Z,9.70
2019-03-22T06:00:33.821Z,9.60
2019-03-22T06:03:01.900Z,9.98
2019-03-22T06:05:29.922Z,9.77
2019-03-22T06:07:57.999Z,10.98
2019-03-22T06:10:26.094Z,13.62
2019-03-22T06:12:54.149Z,19.73
2019-03-22T06:15:22.190Z,16.48
2019-03-22T06:17:52.081Z,13.75
2019-03-22T06:20:19.794Z,12.45
2019-03-22T06:22:47.854Z,11.30
2019-03-22T06:25:15.973Z,10.20
2019-03-22T06:27:44.109Z,10.65
2019-03-22T06:30:12.167Z,10.60
2019-03-22T06:32:40.967Z,10.63
2019-03-22T06:35:09.014Z,10.20
2019-03-22T06:37:37.066Z,10.13
2019-03-22T06:40:05.120Z,9.93
2019-03-22T06:42:33.119Z,9.60
2019-03-22T06:45:01.995Z,9.73
2019-03-22T06:47:30.031Z,9.70
2019-03-22T06:49:58.096Z,9.45
2019-03-22T06:52:26.139Z,10.10
2019-03-22T06:54:54.178Z,10.00
2019-03-22T06:57:22.227Z,11.83
2019-03-22T06:59:50.263Z,11.40
2019-03-22T07:02:18.347Z,10.52
2019-03-22T07:04:46.441Z,10.43
2019-03-22T07:07:14.471Z,11.25
2019-03-22T07:09:42.571Z,10.57
2019-03-22T07:12:10.605Z,10.57
2019-03-22T07:14:38.692Z,11.50
2019-03-22T07:17:06.877Z,11.18
2019-03-22T07:19:34.973Z,10.38
2019-03-22T07:22:03.002Z,10.98
2019-03-22T07:24:31.068Z,10.40
2019-03-22T07:26:59.109Z,10.90
2019-03-22T07:29:27.932Z,10.57
2019-03-22T07:31:55.986Z,10.05
2019-03-22T07:34:24.049Z,9.80
2019-03-22T07:36:52.992Z,10.37
2019-03-22T07:39:21.131Z,9.88
2019-03-22T07:41:49.239Z,9.50
2019-03-22T07:44:17.284Z,9.65
2019-03-22T07:46:45.393Z,9.50
2019-03-22T07:49:13.494Z,9.10
2019-03-22T07:51:41.592Z,9.55
2019-03-22T07:54:09.630Z,9.40
2019-03-22T07:56:38.525Z,9.07
2019-03-22T07:59:06.606Z,9.70
2019-03-22T08:01:34.654Z,9.90
2019-03-22T08:04:03.462Z,9.65
2019-03-22T08:06:31.561Z,10.02
2019-03-22T08:08:59.750Z,9.43
2019-03-22T08:11:27.941Z,9.63
2019-03-22T08:13:56.000Z,9.93
2019-03-22T08:16:24.134Z,9.75
2019-03-22T08:18:52.218Z,9.93
2019-03-22T08:21:20.266Z,9.13
2019-03-22T08:23:48.385Z,9.32
2019-03-22T08:26:16.498Z,9.32
2019-03-22T08:28:45.295Z,9.37
2019-03-22T08:31:13.398Z,9.60
2019-03-22T08:33:41.571Z,9.23
2019-03-22T08:36:09.713Z,8.77
2019-03-22T08:38:38.532Z,9.53
2019-03-22T08:41:06.598Z,9.30
2019-03-22T08:43:34.634Z,9.90
2019-03-22T08:46:02.759Z,9.45
2019-03-22T08:48:30.779Z,9.07
2019-03-22T08:50:58.848Z,9.70
2019-03-22T08:53:27.029Z,9.52
2019-03-22T08:55:55.109Z,9.38
2019-03-22T08:58:23.918Z,9.83
2019-03-22T09:00:57.481Z,10.00
2019-03-22T09:03:20.154Z,9.80
2019-03-22T09:05:48.444Z,9.60
2019-03-22T09:08:16.552Z,9.90
2019-03-22T09:10:44.537Z,9.70
2019-03-22T09:13:13.370Z,9.77
2019-03-22T09:15:42.001Z,9.80
2019-03-22T09:18:09.461Z,10.13
2019-03-22T09:20:38.243Z,10.23
2019-03-22T09:23:06.339Z,10.25
2019-03-22T09:25:34.498Z,9.85
2019-03-22T09:28:02.648Z,9.52
2019-03-22T09:30:30.816Z,10.50
2019-03-22T09:32:58.953Z,9.65
2019-03-22T09:35:27.080Z,9.70
2019-03-22T09:37:55.274Z,9.20
2019-03-22T09:40:24.148Z,9.33
2019-03-22T09:42:53.097Z,9.10
2019-03-22T09:45:20.290Z,8.93
2019-03-22T09:47:49.110Z,8.77
2019-03-22T09:50:17.124Z,8.85
2019-03-22T09:52:45.260Z,9.20
2019-03-22T09:55:14.550Z,8.85
2019-03-22T09:57:41.401Z,8.75
2019-03-22T10:00:09.427Z,9.55
2019-03-22T10:02:37.506Z,9.32
2019-03-22T10:05:06.292Z,9.40
2019-03-22T10:07:34.431Z,9.02
2019-03-22T10:10:03.343Z,9.13
2019-03-22T10:12:31.385Z,8.90
2019-03-22T10:14:59.488Z,8.77
2019-03-22T10:17:27.624Z,9.20
2019-03-22T10:19:55.631Z,9.52
2019-03-22T10:22:24.498Z,9.52
2019-03-22T10:24:52.587Z,9.38
2019-03-22T10:27:21.389Z,9.27
2019-03-22T10:29:49.438Z,9.90
2019-03-22T10:32:18.407Z,9.10
2019-03-22T10:34:46.515Z,9.27
2019-03-22T10:37:14.564Z,9.32
2019-03-22T10:39:43.534Z,8.50
2019-03-22T10:42:11.450Z,8.87
2019-03-22T10:44:39.601Z,9.02
2019-03-22T10:47:07.563Z,9.07
2019-03-22T10:49:36.409Z,8.90
2019-03-22T10:52:04.737Z,8.90
2019-03-22T10:54:32.549Z,8.25
2019-03-22T10:57:00.595Z,8.20
2019-03-22T10:59:28.635Z,7.97
2019-03-22T11:02:03.397Z,8.38
2019-03-22T11:04:25.607Z,8.73
2019-03-22T11:06:53.675Z,8.52
2019-03-22T11:09:21.757Z,7.87
2019-03-22T11:11:49.809Z,8.25
2019-03-22T11:14:18.606Z,7.35
2019-03-22T11:16:46.662Z,7.90
2019-03-22T11:19:15.611Z,7.97
2019-03-22T11:21:43.647Z,7.70
2019-03-22T11:24:11.714Z,8.25
2019-03-22T11:26:39.805Z,8.25
2019-03-22T11:29:07.884Z,7.85
2019-03-22T11:31:39.726Z,7.60
2019-03-22T11:34:04.706Z,7.87
2019-03-22T11:36:33.542Z,7.90
2019-03-22T11:39:01.634Z,7.75
2019-03-22T11:41:29.670Z,7.82
2019-03-22T11:43:57.686Z,8.30
2019-03-22T11:46:26.549Z,8.15
2019-03-22T11:48:54.615Z,8.80
2019-03-22T11:51:22.725Z,8.97
2019-03-22T11:53:51.556Z,8.43
2019-03-22T11:56:19.646Z,7.90
2019-03-22T11:58:47.694Z,8.27
2019-03-22T12:01:19.663Z,8.93
2019-03-22T12:03:43.993Z,9.02
2019-03-22T12:06:12.857Z,9.25
2019-03-22T12:08:40.987Z,8.98
2019-03-22T12:11:09.030Z,8.60
2019-03-22T12:13:37.967Z,9.18
2019-03-22T12:16:06.898Z,8.52
2019-03-22T12:18:35.078Z,7.95
2019-03-22T12:21:03.983Z,8.07
2019-03-22T12:23:32.914Z,8.07
2019-03-22T12:26:01.068Z,8.10
2019-03-22T12:28:29.185Z,8.55
2019-03-22T12:30:58.894Z,8.60
2019-03-22T12:33:26.991Z,9.18
2019-03-22T12:35:56.589Z,8.88
2019-03-22T12:38:24.719Z,8.65
2019-03-22T12:40:52.846Z,8.90
2019-03-22T12:43:22.446Z,8.60
2019-03-22T12:45:51.363Z,8.20
2019-03-22T12:48:19.460Z,7.68
2019-03-22T12:50:47.566Z,9.30
2019-03-22T12:53:15.642Z,10.93
2019-03-22T12:55:44.514Z,8.23
2019-03-22T12:58:12.682Z,8.55
2019-03-22T13:00:41.639Z,8.50
2019-03-22T13:03:09.707Z,8.20
2019-03-22T13:05:37.829Z,8.45
2019-03-22T13:08:05.958Z,8.55
2019-03-22T13:10:34.029Z,8.32
2019-03-22T13:13:02.066Z,7.77
2019-03-22T13:15:30.835Z,8.10
2019-03-22T13:17:58.934Z,8.60
2019-03-22T13:20:27.047Z,8.95
2019-03-22T13:22:55.188Z,9.10
2019-03-22T13:25:24.107Z,8.15
2019-03-22T13:27:52.209Z,8.87
2019-03-22T13:30:36.525Z,8.77
2019-03-22T13:33:04.618Z,9.30
2019-03-22T13:35:33.560Z,9.32
2019-03-22T13:38:02.355Z,8.63
2019-03-22T13:40:30.482Z,9.17
2019-03-22T13:42:58.741Z,8.80
2019-03-22T13:45:26.772Z,8.63
2019-03-22T13:47:54.846Z,9.18
2019-03-22T13:50:22.923Z,9.45
2019-03-22T13:52:51.075Z,9.13
2019-03-22T13:55:19.181Z,9.10
2019-03-22T13:57:47.269Z,9.05
2019-03-22T14:00:16.102Z,8.65
2019-03-22T14:02:44.225Z,8.57
2019-03-22T14:05:12.291Z,8.30
2019-03-22T14:07:40.331Z,9.13
2019-03-22T14:10:12.791Z,9.30
2019-03-22T14:12:40.827Z,8.55
2019-03-22T14:15:08.894Z,8.77
2019-03-22T14:17:37.006Z,8.80
2019-03-22T14:20:11.336Z,9.03
2019-03-22T14:22:33.839Z,8.30
2019-03-22T14:25:02.771Z,8.48
2019-03-22T14:27:30.830Z,9.20
2019-03-22T14:29:58.887Z,9.23
2019-03-22T14:32:26.926Z,9.77
2019-03-22T14:34:55.755Z,8.87
2019-03-22T14:37:23.790Z,9.10
2019-03-22T14:39:52.745Z,9.27
2019-03-22T14:42:20.913Z,9.40
2019-03-22T14:44:49.064Z,9.48
2019-03-22T14:47:17.107Z,9.55
2019-03-22T14:49:45.198Z,9.53
2019-03-22T14:52:13.244Z,9.00
2019-03-22T14:54:42.053Z,9.23
2019-03-22T14:57:10.837Z,8.80
2019-03-22T14:59:38.918Z,8.75
2019-03-22T15:02:07.026Z,9.30
2019-03-22T15:04:35.046Z,8.77
2019-03-22T15:07:03.195Z,9.32
2019-03-22T15:09:31.285Z,9.45
2019-03-22T15:12:00.090Z,9.60
2019-03-22T15:14:28.184Z,9.65
2019-03-22T15:17:02.852Z,10.10
2019-03-22T15:19:35.882Z,9.77
2019-03-22T15:22:09.627Z,9.23
2019-03-22T15:24:42.610Z,10.70
2019-03-22T15:27:16.338Z,10.32
2019-03-22T15:29:50.039Z,10.38
2019-03-22T15:32:37.603Z,9.73
2019-03-22T15:35:07.152Z,10.15
2019-03-22T15:37:40.846Z,9.48
2019-03-22T15:40:08.970Z,10.20
2019-03-22T15:42:37.851Z,9.83
2019-03-22T15:45:06.069Z,9.80
2019-03-22T15:47:34.082Z,10.27
2019-03-22T15:50:03.002Z,9.93
2019-03-22T15:52:31.058Z,9.98
2019-03-22T15:54:59.702Z,10.25
2019-03-22T15:57:27.857Z,9.80
2019-03-22T15:59:55.992Z,10.18
2019-03-22T16:02:24.054Z,10.50
2019-03-22T16:04:52.869Z,10.30
2019-03-22T16:07:21.078Z,10.00
2019-03-22T16:09:49.130Z,10.40
2019-03-22T16:12:17.195Z,10.68
2019-03-22T16:14:45.250Z,10.87
2019-03-22T16:17:13.302Z,10.68
2019-03-22T16:19:41.357Z,10.38
2019-03-22T16:22:10.181Z,10.75
2019-03-22T16:24:38.247Z,10.40
2019-03-22T16:27:07.050Z,10.30
2019-03-22T16:29:35.080Z,9.90
2019-03-22T16:32:03.900Z,9.98
2019-03-22T16:34:31.948Z,11.20
2019-03-22T16:37:00.854Z,9.98
2019-03-22T16:39:28.891Z,9.98
2019-03-22T16:41:57.033Z,7.80
2019-03-22T16:44:25.222Z,9.85
2019-03-22T16:46:53.267Z,10.02
2019-03-22T16:49:21.325Z,10.02
2019-03-22T16:51:49.398Z,9.40
2019-03-22T16:54:17.442Z,9.88
2019-03-22T16:56:45.462Z,9.73
2019-03-22T16:59:13.515Z,10.27
2019-03-22T17:01:41.572Z,10.17
2019-03-22T17:06:44.162Z,10.30
2019-03-22T17:09:12.983Z,9.67
2019-03-22T17:11:41.124Z,10.05
2019-03-22T17:14:09.158Z,9.85
2019-03-22T17:16:37.315Z,9.43
2019-03-22T17:19:05.358Z,9.95
2019-03-22T17:21:33.545Z,9.90
2019-03-22T17:24:02.796Z,10.05
2019-03-22T17:26:30.974Z,9.82
2019-03-22T17:28:59.030Z,9.77
2019-03-22T17:31:27.880Z,10.00
2019-03-22T17:33:55.911Z,10.60
2019-03-22T17:36:23.963Z,11.55
2019-03-22T17:38:53.553Z,11.77
2019-03-22T17:41:21.668Z,11.18
2019-03-22T17:43:49.721Z,11.50
2019-03-22T17:46:17.789Z,12.18
2019-03-22T17:48:47.805Z,11.65
2019-03-22T17:51:16.599Z,13.23
2019-03-22T17:53:44.663Z,13.05
2019-03-22T17:56:13.499Z,24.67
2019-03-22T17:58:41.636Z,27.30
2019-03-22T18:01:09.729Z,29.92
2019-03-22T18:03:37.888Z,30.48
2019-03-22T18:06:05.942Z,27.13
2019-03-22T18:08:34.004Z,25.55
2019-03-22T18:11:02.827Z,25.10
2019-03-22T18:13:30.918Z,23.38
2019-03-22T18:15:59.174Z,23.25
2019-03-22T18:18:27.967Z,21.40
2019-03-22T18:20:56.035Z,19.30
2019-03-22T18:23:24.823Z,18.62
2019-03-22T18:25:52.890Z,18.02
2019-03-22T18:28:20.972Z,16.80
2019-03-22T18:30:49.080Z,15.85
2019-03-22T18:33:17.139Z,16.00
2019-03-22T18:35:45.231Z,14.90
2019-03-22T18:38:13.278Z,14.35
2019-03-22T18:40:41.342Z,15.18
2019-03-22T18:43:09.381Z,15.48
2019-03-22T18:45:37.471Z,15.25
2019-03-22T18:48:05.557Z,16.67
2019-03-22T18:50:34.534Z,16.07
2019-03-22T18:53:02.583Z,15.88
2019-03-22T18:55:31.492Z,16.48
2019-03-22T18:57:59.563Z,16.95
2019-03-22T19:00:27.623Z,16.62
2019-03-22T19:02:55.670Z,16.95
2019-03-22T19:05:24.514Z,17.83
2019-03-22T19:07:52.589Z,17.40
2019-03-22T19:10:20.677Z,17.02
2019-03-22T19:12:48.714Z,17.83
2019-03-22T19:15:16.773Z,18.60
2019-03-22T19:17:44.829Z,18.52
2019-03-22T19:20:13.686Z,16.80
2019-03-22T19:22:41.855Z,16.85
2019-03-22T19:25:09.922Z,16.40
2019-03-22T19:27:38.001Z,16.20
2019-03-22T19:30:12.277Z,15.48
2019-03-22T19:32:40.371Z,16.60
2019-03-22T19:35:08.421Z,15.95
2019-03-22T19:37:36.469Z,15.63
2019-03-22T19:40:05.301Z,16.33
2019-03-22T19:42:33.343Z,16.42
2019-03-22T19:45:01.372Z,16.33
2019-03-22T19:47:30.193Z,16.55
2019-03-22T19:49:59.083Z,17.00
2019-03-22T19:52:27.122Z,16.73
2019-03-22T19:54:55.201Z,16.80
2019-03-22T19:57:24.003Z,16.52
2019-03-22T19:59:52.794Z,16.87
2019-03-22T20:02:20.838Z,15.95
2019-03-22T20:04:48.893Z,16.93
2019-03-22T20:07:26.410Z,20.10
2019-03-22T20:09:45.029Z,19.70
2019-03-22T20:12:13.168Z,19.67
2019-03-22T20:14:41.210Z,21.73
2019-03-22T20:17:09.313Z,19.62
2019-03-22T20:19:37.331Z,21.60
2019-03-22T20:22:05.375Z,20.50
2019-03-22T20:24:33.506Z,18.12
2019-03-22T20:27:02.391Z,18.00
2019-03-22T20:29:30.433Z,18.37
2019-03-22T20:31:58.470Z,18.73
2019-03-22T20:34:26.517Z,17.95
2019-03-22T20:36:54.573Z,17.75
2019-03-22T20:39:23.354Z,16.80
2019-03-22T20:41:51.426Z,16.65
2019-03-22T20:44:20.211Z,15.77
2019-03-22T20:46:48.258Z,16.37
2019-03-22T20:49:17.061Z,16.27
2019-03-22T20:51:45.181Z,16.30
2019-03-22T20:54:13.227Z,16.75
2019-03-22T20:56:41.309Z,15.60
2019-03-22T20:59:09.967Z,15.75
2019-03-22T21:01:38.077Z,16.77
2019-03-22T21:04:06.116Z,16.80
2019-03-22T21:06:34.199Z,16.30
2019-03-22T21:09:02.236Z,16.08
2019-03-22T21:11:30.367Z,15.98
2019-03-22T21:13:58.513Z,15.43
2019-03-22T21:16:26.573Z,15.25
2019-03-22T21:18:54.610Z,15.45
2019-03-22T21:21:31.965Z,15.25
2019-03-22T21:23:51.570Z,15.67
2019-03-22T21:26:20.533Z,15.93
2019-03-22T21:28:48.546Z,15.82
2019-03-22T21:31:16.598Z,15.93
2019-03-22T21:33:45.407Z,15.10
2019-03-22T21:36:14.190Z,15.13
2019-03-22T21:38:42.269Z,14.93
2019-03-22T21:41:10.328Z,14.77
2019-03-22T21:43:39.265Z,15.40
2019-03-22T21:46:07.338Z,15.48
2019-03-22T21:48:35.395Z,16.00
2019-03-22T21:51:03.432Z,16.35
2019-03-22T21:53:32.135Z,15.85
2019-03-22T21:56:00.202Z,15.27
2019-03-22T21:58:28.294Z,14.52
2019-03-22T22:00:56.330Z,15.20
2019-03-22T22:03:25.124Z,14.77
2019-03-22T22:05:53.195Z,15.32
2019-03-22T22:08:21.260Z,15.98
2019-03-22T22:10:59.327Z,15.45
2019-03-22T22:13:19.007Z,16.00
2019-03-22T22:15:47.058Z,14.20
2019-03-22T22:18:15.178Z,14.90
2019-03-22T22:20:43.219Z,14.77
2019-03-22T22:23:11.361Z,15.68
2019-03-22T22:25:40.116Z,15.60
2019-03-22T22:28:08.171Z,16.35
2019-03-22T22:30:36.960Z,16.20
2019-03-22T22:33:05.010Z,16.50
2019-03-22T22:35:33.817Z,17.35
2019-03-22T22:38:01.908Z,17.87
2019-03-22T22:40:30.010Z,18.10
2019-03-22T22:42:58.063Z,18.50
2019-03-22T22:45:26.145Z,19.23
2019-03-22T22:47:54.236Z,18.37
2019-03-22T22:50:22.272Z,19.12
2019-03-22T22:52:50.317Z,19.12
2019-03-22T22:55:19.103Z,19.30
2019-03-22T22:57:47.160Z,18.65
2019-03-22T23:00:15.979Z,18.20
2019-03-22T23:02:44.076Z,17.90
2019-03-22T23:05:12.206Z,18.17
2019-03-22T23:07:40.265Z,18.37
2019-03-22T23:10:09.108Z,17.83
2019-03-22T23:12:37.150Z,19.67
2019-03-22T23:15:05.206Z,19.33
2019-03-22T23:17:33.242Z,19.00
2019-03-22T23:20:01.295Z,19.50
2019-03-22T23:22:29.426Z,19.00
2019-03-22T23:24:57.513Z,18.25
2019-03-22T23:27:25.562Z,18.70
2019-03-22T23:29:54.386Z,18.37
2019-03-22T23:32:22.526Z,18.73
2019-03-22T23:34:58.694Z,18.92
2019-03-22T23:37:18.633Z,19.62
2019-03-22T23:39:47.487Z,18.80
2019-03-22T23:42:15.688Z,19.15
2019-03-22T23:44:43.799Z,19.60
2019-03-22T23:47:11.886Z,19.10
2019-03-22T23:49:39.898Z,20.60
2019-03-22T23:52:07.947Z,18.73
2019-03-22T23:54:36.037Z,19.12
2019-03-22T23:57:04.248Z,19.48
2019-03-22T23:59:32.307Z,19.30
